Time;durP1;ratioP1;P1;durP2;ratioP2;P2;SDS_P1;SDS_P2;PMS_P1;PMS_P2;Temp;Humidity;BMP_temperature;BMP_pressure;BME280_temperature;BME280_humidity;BME280_pressure;Samples;Min_cycle;Max_cycle;Signal;HPM_P1;HPM_P2
2022/01/25 00:26:35;;;;;;;37.47;18.77;;;4.30;99.90;;;;;;6217034;23;20160;-64
2022/01/25 00:29:07;;;;;;;34.40;17.08;;;4.30;99.90;;;;;;6216879;23;20129;-64
2022/01/25 00:31:34;;;;;;;33.97;17.08;;;4.30;99.90;;;;;;6217225;23;20141;-64
2022/01/25 00:34:00;;;;;;;37.88;18.30;;;4.30;99.90;;;;;;6216850;23;20141;-64
2022/01/25 00:36:27;;;;;;;41.20;19.52;;;4.30;99.90;;;;;;6190661;23;20145;-64
2022/01/25 00:38:53;;;;;;;39.22;18.15;;;4.30;99.90;;;;;;6190643;23;20153;-64
2022/01/25 00:41:20;;;;;;;35.45;18.85;;;4.30;99.90;;;;;;6216798;23;20488;-64
2022/01/25 00:43:46;;;;;;;37.50;18.13;;;4.30;99.90;;;;;;6217073;23;20183;-64
2022/01/25 00:46:12;;;;;;;38.63;18.98;;;4.30;99.90;;;;;;6216657;23;20141;-64
2022/01/25 00:51:46;;;;;;;37.35;18.33;;;4.30;99.90;;;;;;6216993;23;20156;-64
2022/01/25 00:54:16;;;;;;;35.72;18.90;;;4.30;99.90;;;;;;6216296;23;20156;-64
2022/01/25 00:56:49;;;;;;;37.08;18.38;;;4.30;99.90;;;;;;6216913;23;20159;-63
2022/01/25 00:59:20;;;;;;;37.30;18.80;;;4.20;99.90;;;;;;6216259;23;20240;-63
2022/01/25 01:01:48;;;;;;;41.00;19.17;;;4.30;99.90;;;;;;6216526;23;20148;-63
2022/01/25 01:04:13;;;;;;;39.97;18.63;;;4.30;99.90;;;;;;6216501;23;20152;-63
2022/01/25 01:06:42;;;;;;;37.97;18.10;;;4.30;99.90;;;;;;6216543;23;20145;-63
2022/01/25 01:09:09;;;;;;;39.63;18.90;;;4.30;99.90;;;;;;6216697;23;20152;-63
2022/01/25 01:11:52;;;;;;;40.28;19.13;;;4.30;99.90;;;;;;6216694;23;20144;-64
2022/01/25 01:17:02;;;;;;;41.60;18.80;;;4.20;99.90;;;;;;6216873;23;20211;-64
2022/01/25 01:30:49;;;;;;;40.55;18.55;;;4.30;99.90;;;;;;6216292;23;20433;-61
2022/01/25 01:36:50;;;;;;;42.55;19.65;;;4.30;99.90;;;;;;6216476;23;20139;-60
2022/01/25 01:42:10;;;;;;;40.75;19.23;;;4.30;99.90;;;;;;6216338;23;20186;-61
2022/01/25 01:44:52;;;;;;;42.38;19.15;;;4.20;99.90;;;;;;6215943;23;20152;-62
2022/01/25 01:47:35;;;;;;;43.80;20.27;;;4.30;99.90;;;;;;6216380;23;20141;-62
2022/01/25 01:50:08;;;;;;;39.50;18.60;;;4.20;99.90;;;;;;6216145;23;20129;-62
2022/01/25 01:52:33;;;;;;;36.58;18.52;;;4.20;99.90;;;;;;6192022;23;20137;-60
2022/01/25 01:54:59;;;;;;;43.10;19.08;;;4.20;99.90;;;;;;6216562;23;20478;-60
2022/01/25 01:57:24;;;;;;;44.53;20.35;;;4.20;99.90;;;;;;6216124;23;20502;-60
2022/01/25 01:59:50;;;;;;;43.53;20.20;;;4.30;99.90;;;;;;6216020;23;20172;-61
2022/01/25 02:02:15;;;;;;;40.03;18.50;;;4.20;99.90;;;;;;6189926;23;20157;-61
2022/01/25 02:04:41;;;;;;;39.13;18.88;;;4.20;99.90;;;;;;6189800;23;20633;-61
2022/01/25 02:07:06;;;;;;;44.63;20.35;;;4.20;99.90;;;;;;6216532;23;20148;-61
2022/01/25 02:09:32;;;;;;;44.67;19.65;;;4.20;99.90;;;;;;6216306;23;20251;-61
2022/01/25 02:11:58;;;;;;;48.25;20.48;;;4.20;99.90;;;;;;6217664;23;20199;-61
2022/01/25 02:14:23;;;;;;;41.83;19.00;;;4.20;99.90;;;;;;6218534;23;20561;-61
2022/01/25 02:24:45;;;;;;;43.90;19.17;;;4.10;99.90;;;;;;6218454;23;20137;-60
2022/01/25 02:27:11;;;;;;;46.25;20.67;;;4.10;99.90;;;;;;6218559;23;20152;-61
2022/01/25 02:29:36;;;;;;;40.25;18.98;;;4.20;99.90;;;;;;6218196;23;20148;-61
2022/01/25 02:32:03;;;;;;;45.28;19.90;;;4.20;99.90;;;;;;6218110;23;20145;-61
2022/01/25 02:34:28;;;;;;;39.95;18.50;;;4.20;99.90;;;;;;6217915;23;20153;-61
2022/01/25 02:37:05;;;;;;;41.15;19.63;;;4.10;99.90;;;;;;6217865;23;20156;-61
2022/01/25 02:39:33;;;;;;;47.83;19.90;;;4.10;99.90;;;;;;6191615;23;20619;-62
2022/01/25 02:41:58;;;;;;;44.88;20.52;;;4.10;99.90;;;;;;6218046;23;20141;-60
2022/01/25 02:44:26;;;;;;;45.38;19.90;;;4.10;99.90;;;;;;6218261;23;20145;-60
2022/01/25 02:49:31;;;;;;;43.53;19.05;;;4.10;99.90;;;;;;6218207;23;20144;-60
2022/01/25 02:51:57;;;;;;;47.10;19.88;;;4.10;99.90;;;;;;6218181;23;20155;-61
2022/01/25 02:54:23;;;;;;;44.65;18.50;;;4.10;99.90;;;;;;6218284;23;20474;-60
2022/01/25 02:56:49;;;;;;;44.25;19.50;;;4.20;99.90;;;;;;6217735;23;20178;-61
2022/01/25 02:59:16;;;;;;;47.88;20.25;;;4.20;99.90;;;;;;6217660;23;20227;-60
2022/01/25 03:01:42;;;;;;;44.47;19.48;;;4.20;99.90;;;;;;6218088;23;20149;-60
2022/01/25 03:04:09;;;;;;;37.60;17.15;;;4.20;99.90;;;;;;6217662;23;20148;-60
2022/01/25 03:06:35;;;;;;;44.20;20.15;;;4.20;99.90;;;;;;6217960;23;20145;-61
2022/01/25 03:09:01;;;;;;;44.25;18.80;;;4.20;99.90;;;;;;6217677;23;20141;-61
2022/01/25 03:11:26;;;;;;;44.20;19.23;;;4.20;99.90;;;;;;6217512;23;20141;-60
2022/01/25 03:13:55;;;;;;;38.67;18.30;;;4.20;99.90;;;;;;6217819;23;20134;-61
2022/01/25 03:16:32;;;;;;;44.58;19.42;;;4.20;99.90;;;;;;6217798;23;20203;-61
2022/01/25 03:19:02;;;;;;;42.28;19.17;;;4.20;99.90;;;;;;6217545;23;20160;-61
2022/01/25 03:23:55;;;;;;;39.17;18.25;;;4.20;99.90;;;;;;6218123;23;20152;-61
2022/01/25 03:26:22;;;;;;;42.17;19.00;;;4.20;99.90;;;;;;6217398;23;20419;-61
2022/01/25 03:28:47;;;;;;;40.50;18.85;;;4.20;99.90;;;;;;6217461;23;20211;-61
2022/01/25 03:31:14;;;;;;;38.08;17.83;;;4.20;99.90;;;;;;6217399;23;20133;-61
2022/01/25 03:33:40;;;;;;;45.90;19.50;;;4.20;99.90;;;;;;6217347;23;20137;-61
2022/01/25 03:36:07;;;;;;;40.55;17.60;;;4.20;99.90;;;;;;6217644;23;20152;-61
2022/01/25 03:38:34;;;;;;;36.97;18.30;;;4.20;99.90;;;;;;6217576;23;20202;-61
2022/01/25 03:41:01;;;;;;;42.25;18.25;;;4.20;99.90;;;;;;6217822;23;20169;-61
2022/01/25 03:43:27;;;;;;;42.20;18.05;;;4.20;99.90;;;;;;6217635;23;20149;-62
2022/01/25 03:46:08;;;;;;;42.67;18.65;;;4.20;99.90;;;;;;6217205;23;20141;-61
2022/01/25 03:50:59;;;;;;;40.30;17.45;;;4.20;99.90;;;;;;6217211;23;20246;-61
2022/01/25 03:53:24;;;;;;;37.28;17.77;;;4.20;99.90;;;;;;6217310;23;20152;-60
2022/01/25 03:55:50;;;;;;;40.58;17.38;;;4.20;99.90;;;;;;6217145;23;20145;-61
2022/01/25 03:58:16;;;;;;;39.85;16.83;;;4.20;99.90;;;;;;6217261;23;20160;-61
2022/01/25 04:00:42;;;;;;;39.95;18.23;;;4.20;99.90;;;;;;6217357;23;20244;-61
2022/01/25 04:03:34;;;;;;;40.45;17.67;;;4.20;99.90;;;;;;6217308;23;20148;-61
2022/01/25 04:06:01;;;;;;;42.22;17.92;;;4.20;99.90;;;;;;6217876;23;20480;-61
2022/01/25 04:08:26;;;;;;;34.97;16.83;;;4.30;99.90;;;;;;6217452;23;20228;-61
2022/01/25 04:10:52;;;;;;;38.95;18.42;;;4.20;99.90;;;;;;6190866;23;20228;-61
2022/01/25 04:13:19;;;;;;;42.15;19.17;;;4.30;99.90;;;;;;6216964;23;20148;-61
2022/01/25 04:15:46;;;;;;;42.15;18.77;;;4.30;99.90;;;;;;6217067;23;20156;-61
2022/01/25 04:18:25;;;;;;;44.38;18.85;;;4.30;99.90;;;;;;6217363;23;20144;-61
2022/01/25 04:21:24;;;;;;;44.15;17.75;;;4.30;99.90;;;;;;6217382;23;20171;-61
2022/01/25 04:26:23;;;;;;;41.50;18.00;;;4.30;99.90;;;;;;6216920;23;20132;-61
2022/01/25 04:28:48;;;;;;;39.33;18.13;;;4.30;99.90;;;;;;6216923;23;20141;-61
2022/01/25 04:31:17;;;;;;;39.47;16.58;;;4.30;99.90;;;;;;6216926;23;20210;-61
2022/01/25 04:33:55;;;;;;;40.30;17.60;;;4.30;99.90;;;;;;6216683;23;20172;-61
2022/01/25 04:36:39;;;;;;;40.53;18.05;;;4.30;99.90;;;;;;6217138;23;20175;-61
2022/01/25 04:50:04;;;;;;;42.80;19.23;;;4.30;99.90;;;;;;6216796;23;20143;-62
2022/01/25 04:52:36;;;;;;;44.38;18.48;;;4.30;99.90;;;;;;6190835;23;20157;-62
2022/01/25 04:55:22;;;;;;;42.53;19.30;;;4.30;99.90;;;;;;6217079;23;20140;-61
2022/01/25 04:57:55;;;;;;;40.67;17.88;;;4.30;99.90;;;;;;6216810;23;20160;-62
2022/01/25 05:00:22;;;;;;;39.45;18.88;;;4.30;99.90;;;;;;6216889;23;20157;-62
2022/01/25 05:02:54;;;;;;;41.67;18.67;;;4.30;99.90;;;;;;6216792;23;20214;-62
2022/01/25 05:05:31;;;;;;;40.65;18.60;;;4.30;99.90;;;;;;6216896;23;20187;-62
2022/01/25 05:08:04;;;;;;;46.63;18.85;;;4.30;99.90;;;;;;6216484;23;20187;-62
2022/01/25 05:10:32;;;;;;;39.70;18.70;;;4.30;99.90;;;;;;6216902;23;20133;-62
2022/01/25 05:13:37;;;;;;;40.72;18.05;;;4.30;99.90;;;;;;6216356;23;20167;-62
2022/01/25 05:16:06;;;;;;;43.45;18.95;;;4.40;99.90;;;;;;6216302;23;20152;-61
2022/01/25 05:18:40;;;;;;;43.05;18.65;;;4.40;99.90;;;;;;6216453;23;20207;-62
2022/01/25 05:23:51;;;;;;;38.83;18.42;;;4.40;99.90;;;;;;6216463;23;20461;-62
2022/01/25 05:26:16;;;;;;;45.13;20.15;;;4.50;99.90;;;;;;6216296;23;20141;-62
2022/01/25 05:28:42;;;;;;;43.25;19.80;;;4.40;99.90;;;;;;6216502;23;20145;-63
2022/01/25 05:31:07;;;;;;;44.83;20.08;;;4.50;99.90;;;;;;6216614;23;20152;-63
2022/01/25 05:33:33;;;;;;;39.53;18.25;;;4.50;99.90;;;;;;6216278;23;20429;-64
2022/01/25 05:35:58;;;;;;;42.95;18.48;;;4.50;99.90;;;;;;6216468;23;20145;-64
2022/01/25 05:38:24;;;;;;;40.40;18.98;;;4.50;99.90;;;;;;6216081;23;20145;-64
2022/01/25 05:40:58;;;;;;;43.20;18.83;;;4.50;99.90;;;;;;6216416;23;20165;-65
2022/01/25 05:46:13;;;;;;;44.63;20.45;;;4.50;99.90;;;;;;6191934;23;20433;-64
2022/01/25 05:48:38;;;;;;;46.63;20.48;;;4.50;99.90;;;;;;6216486;23;20448;-64
2022/01/25 05:51:04;;;;;;;50.63;20.23;;;4.50;99.90;;;;;;6216223;23;20185;-64
2022/01/25 05:53:31;;;;;;;44.17;18.17;;;4.50;99.90;;;;;;6216371;23;20152;-63
2022/01/25 05:55:56;;;;;;;43.80;19.20;;;4.40;99.90;;;;;;6216406;23;20180;-65
2022/01/25 05:58:22;;;;;;;43.42;19.25;;;4.40;99.90;;;;;;6216037;23;20561;-63
2022/01/25 06:00:47;;;;;;;41.63;18.95;;;4.50;99.90;;;;;;6216299;23;20187;-64
2022/01/25 06:03:13;;;;;;;46.08;19.45;;;4.50;99.90;;;;;;6215967;23;20538;-65
2022/01/25 06:05:39;;;;;;;44.40;18.92;;;4.50;99.90;;;;;;6216049;23;20137;-64
2022/01/25 06:08:05;;;;;;;44.22;19.30;;;4.50;99.90;;;;;;6216023;23;20141;-64
2022/01/25 06:10:31;;;;;;;44.92;19.05;;;4.50;99.90;;;;;;6216261;23;20149;-64
2022/01/25 06:12:57;;;;;;;47.05;19.52;;;4.40;99.90;;;;;;6216202;23;20183;-64
2022/01/25 06:15:22;;;;;;;44.50;19.95;;;4.40;99.90;;;;;;6216059;23;20157;-64
2022/01/25 06:17:49;;;;;;;44.08;18.75;;;4.40;99.90;;;;;;6215856;23;20216;-64
2022/01/25 06:20:15;;;;;;;43.67;19.48;;;4.40;99.90;;;;;;6215956;23;20188;-64
2022/01/25 06:22:40;;;;;;;41.83;19.00;;;4.40;99.90;;;;;;6216394;23;20168;-64
2022/01/25 06:25:07;;;;;;;47.85;19.65;;;4.40;99.90;;;;;;6216157;23;20444;-64
2022/01/25 06:27:33;;;;;;;45.13;19.08;;;4.40;99.90;;;;;;6216558;23;20161;-63
2022/01/25 06:29:58;;;;;;;42.95;18.00;;;4.40;99.90;;;;;;6216121;23;20604;-64
2022/01/25 06:32:24;;;;;;;45.78;18.85;;;4.40;99.90;;;;;;6216361;23;20149;-64
2022/01/25 06:34:49;;;;;;;40.35;18.95;;;4.40;99.90;;;;;;6216069;23;20145;-64
2022/01/25 06:37:15;;;;;;;44.95;18.65;;;4.30;99.90;;;;;;6216073;23;20202;-64
2022/01/25 06:39:41;;;;;;;42.28;18.55;;;4.30;99.90;;;;;;6215853;23;20569;-64
2022/01/25 06:42:07;;;;;;;47.08;19.27;;;4.30;99.90;;;;;;6189869;23;20141;-64
2022/01/25 06:44:35;;;;;;;44.20;19.20;;;4.30;99.90;;;;;;6215892;23;20148;-64
2022/01/25 06:47:01;;;;;;;48.40;21.15;;;4.30;99.90;;;;;;6216551;23;20240;-64
2022/01/25 06:49:27;;;;;;;48.75;19.70;;;4.20;99.90;;;;;;6215824;23;20187;-64
2022/01/25 06:51:52;;;;;;;46.88;19.63;;;4.20;99.90;;;;;;6216035;23;20141;-64
2022/01/25 06:54:18;;;;;;;46.25;19.27;;;4.20;99.90;;;;;;6189696;23;20149;-63
2022/01/25 06:56:43;;;;;;;47.22;20.27;;;4.20;99.90;;;;;;6216280;23;20149;-63
2022/01/25 06:59:09;;;;;;;47.38;20.52;;;4.20;99.90;;;;;;6217699;23;20149;-64
2022/01/25 07:01:34;;;;;;;49.65;20.58;;;4.20;99.90;;;;;;6217897;23;20141;-64
2022/01/25 07:04:00;;;;;;;50.75;19.35;;;4.20;99.90;;;;;;6217577;23;20191;-64
2022/01/25 07:06:25;;;;;;;51.38;20.85;;;4.20;99.90;;;;;;6218372;23;20137;-64
2022/01/25 07:08:51;;;;;;;46.80;19.73;;;4.20;99.90;;;;;;6217586;23;20145;-64
2022/01/25 07:11:16;;;;;;;47.78;19.05;;;4.20;99.90;;;;;;6218045;23;20156;-64
2022/01/25 07:13:42;;;;;;;44.30;17.63;;;4.20;99.90;;;;;;6217705;23;20156;-63
2022/01/25 07:16:08;;;;;;;48.95;19.80;;;4.30;99.90;;;;;;6217722;23;20151;-63
2022/01/25 07:18:33;;;;;;;49.75;20.45;;;4.30;99.90;;;;;;6217650;23;20164;-63
2022/01/25 07:20:59;;;;;;;43.72;18.20;;;4.30;99.90;;;;;;6217712;23;20167;-63
2022/01/25 07:23:25;;;;;;;45.90;19.23;;;4.30;99.90;;;;;;6217470;23;20276;-63
2022/01/25 07:25:50;;;;;;;44.95;19.13;;;4.30;99.90;;;;;;6191629;23;20150;-63
2022/01/25 07:28:16;;;;;;;44.42;18.95;;;4.30;99.90;;;;;;6217653;23;20495;-63
2022/01/25 07:30:42;;;;;;;41.97;18.05;;;4.30;99.90;;;;;;6217306;23;20172;-63
2022/01/25 07:33:07;;;;;;;42.08;18.42;;;4.30;99.90;;;;;;6217460;23;20187;-63
2022/01/25 07:35:34;;;;;;;47.33;18.70;;;4.40;99.90;;;;;;6217556;23;20141;-65
2022/01/25 07:37:59;;;;;;;44.55;19.30;;;4.40;99.90;;;;;;6191057;23;20160;-65
2022/01/25 07:40:25;;;;;;;45.20;18.58;;;4.40;99.90;;;;;;6217342;23;20168;-65
2022/01/25 07:42:50;;;;;;;44.80;16.77;;;4.40;99.90;;;;;;6217615;23;20195;-64
2022/01/25 07:45:16;;;;;;;42.95;17.98;;;4.40;99.90;;;;;;6217262;23;20141;-64
2022/01/25 07:47:41;;;;;;;41.55;18.63;;;4.40;99.90;;;;;;6217053;23;20152;-64
2022/01/25 07:50:08;;;;;;;41.90;17.23;;;4.50;99.90;;;;;;6217089;23;20448;-64
2022/01/25 07:52:34;;;;;;;44.05;17.75;;;4.50;99.90;;;;;;6217205;23;20141;-65
2022/01/25 07:54:59;;;;;;;45.05;18.17;;;4.50;99.90;;;;;;6217226;23;20247;-65
2022/01/25 07:57:25;;;;;;;45.08;17.83;;;4.50;99.90;;;;;;6191134;23;20156;-62
2022/01/25 07:59:51;;;;;;;44.30;16.63;;;4.60;99.90;;;;;;6217484;23;20176;-65
2022/01/25 08:02:18;;;;;;;41.28;16.05;;;4.60;99.90;;;;;;6217235;23;20446;-65
2022/01/25 08:04:43;;;;;;;40.65;16.05;;;4.70;99.90;;;;;;6217024;23;20141;-63
2022/01/25 08:07:09;;;;;;;41.20;15.43;;;4.60;99.90;;;;;;6191286;23;20160;-63
2022/01/25 08:09:34;;;;;;;42.65;16.23;;;4.70;99.90;;;;;;6216285;23;20148;-65
2022/01/25 08:12:00;;;;;;;41.00;16.02;;;4.70;99.90;;;;;;6217316;23;20153;-63
2022/01/25 08:14:25;;;;;;;38.50;15.68;;;4.70;99.90;;;;;;6217338;23;20193;-65
2022/01/25 08:16:52;;;;;;;40.42;15.95;;;4.70;99.90;;;;;;6217270;23;20445;-64
2022/01/25 08:19:18;;;;;;;42.17;16.73;;;4.70;99.90;;;;;;6216584;23;20168;-64
2022/01/25 08:21:44;;;;;;;43.53;16.40;;;4.80;99.90;;;;;;6216884;23;20151;-65
2022/01/25 08:24:11;;;;;;;43.17;16.90;;;4.80;99.90;;;;;;6217117;23;20248;-64
2022/01/25 08:26:37;;;;;;;40.17;17.48;;;4.80;99.90;;;;;;6217178;23;20445;-64
2022/01/25 08:29:04;;;;;;;39.60;17.73;;;4.80;99.90;;;;;;6216576;23;20148;-64
2022/01/25 08:31:30;;;;;;;42.20;17.42;;;4.80;99.90;;;;;;6190535;23;20137;-64
2022/01/25 08:33:55;;;;;;;41.85;17.33;;;4.90;99.90;;;;;;6216576;23;20141;-64
2022/01/25 08:36:21;;;;;;;40.03;16.52;;;4.90;99.90;;;;;;6216797;23;20148;-64
2022/01/25 08:38:47;;;;;;;42.95;17.13;;;4.90;99.90;;;;;;6216714;23;20210;-64
2022/01/25 08:41:13;;;;;;;48.25;17.40;;;4.90;99.90;;;;;;6216633;23;20176;-64
2022/01/25 08:43:39;;;;;;;48.95;17.98;;;4.80;99.90;;;;;;6191058;23;20141;-64
2022/01/25 08:46:05;;;;;;;44.05;17.48;;;4.90;99.90;;;;;;6216738;23;20144;-64
2022/01/25 08:48:30;;;;;;;42.03;17.15;;;4.90;99.90;;;;;;6217183;23;20148;-64
2022/01/25 08:50:58;;;;;;;38.25;17.42;;;4.90;99.90;;;;;;6216419;23;20148;-64
2022/01/25 08:53:23;;;;;;;46.28;16.40;;;4.90;99.90;;;;;;6217085;23;20149;-64
2022/01/25 08:55:49;;;;;;;39.92;17.42;;;4.90;99.90;;;;;;6190788;23;20279;-64
2022/01/25 08:58:14;;;;;;;35.25;15.10;;;4.90;99.90;;;;;;6216685;23;20177;-64
2022/01/25 09:00:40;;;;;;;41.70;16.90;;;5.00;99.90;;;;;;6216330;23;20191;-64
2022/01/25 09:03:05;;;;;;;40.05;16.42;;;4.90;99.90;;;;;;6216631;23;20145;-65
2022/01/25 09:05:31;;;;;;;39.78;15.15;;;4.90;99.90;;;;;;6216427;23;20141;-64
2022/01/25 09:07:57;;;;;;;36.55;14.38;;;5.00;99.90;;;;;;6216609;23;20558;-64
2022/01/25 09:10:26;;;;;;;37.83;15.82;;;5.00;99.90;;;;;;6216192;23;20553;-64
2022/01/25 09:12:51;;;;;;;40.92;15.80;;;5.00;99.90;;;;;;6216590;23;20145;-64
2022/01/25 09:15:17;;;;;;;38.45;14.50;;;5.00;99.90;;;;;;6216771;23;20163;-63
2022/01/25 09:17:42;;;;;;;36.70;15.40;;;5.00;99.90;;;;;;6216570;23;20149;-63
2022/01/25 09:20:08;;;;;;;37.80;15.48;;;5.00;99.90;;;;;;6215905;23;20177;-64
2022/01/25 09:22:34;;;;;;;36.65;14.48;;;5.00;99.90;;;;;;6216229;23;20207;-64
2022/01/25 09:24:59;;;;;;;37.53;15.98;;;5.10;99.90;;;;;;6216190;23;20145;-64
2022/01/25 09:27:25;;;;;;;41.30;15.23;;;5.10;99.90;;;;;;6216246;23;20531;-64
2022/01/25 09:29:51;;;;;;;43.72;14.70;;;5.10;99.90;;;;;;6216249;23;20160;-64
2022/01/25 09:32:18;;;;;;;33.95;14.25;;;5.10;99.90;;;;;;6216057;23;20148;-64
2022/01/25 09:34:44;;;;;;;38.15;14.55;;;5.10;99.90;;;;;;6216537;23;20160;-64
2022/01/25 09:37:09;;;;;;;37.17;15.18;;;5.10;99.90;;;;;;6216453;23;20172;-64
2022/01/25 09:39:35;;;;;;;34.65;14.25;;;5.10;99.90;;;;;;6216380;23;20683;-64
2022/01/25 09:42:03;;;;;;;41.65;13.52;;;5.10;99.90;;;;;;6190142;23;20160;-64
2022/01/25 09:44:29;;;;;;;32.65;13.88;;;5.10;99.90;;;;;;6216870;23;20145;-64
2022/01/25 09:46:56;;;;;;;34.17;14.68;;;5.10;99.90;;;;;;6229372;23;20147;-64
2022/01/25 09:49:22;;;;;;;32.22;14.27;;;5.10;99.90;;;;;;6222916;23;20152;-64
2022/01/25 09:51:49;;;;;;;32.92;14.20;;;5.20;99.90;;;;;;6190637;23;20152;-64
2022/01/25 09:54:14;;;;;;;30.90;14.77;;;5.20;99.90;;;;;;6216483;23;20445;-64
2022/01/25 09:56:40;;;;;;;34.58;14.05;;;5.20;99.90;;;;;;6216410;23;20232;-64
2022/01/25 09:59:05;;;;;;;32.17;13.63;;;5.20;99.90;;;;;;6216327;23;20220;-63
2022/01/25 10:01:32;;;;;;;36.47;14.40;;;5.20;99.90;;;;;;6215929;23;20141;-64
2022/01/25 10:04:00;;;;;;;34.20;14.85;;;5.20;99.90;;;;;;6216799;23;20145;-63
2022/01/25 10:06:31;;;;;;;31.48;12.73;;;5.20;99.90;;;;;;6216226;23;20133;-63
2022/01/25 10:08:57;;;;;;;31.40;14.07;;;5.20;99.90;;;;;;6216355;23;20448;-64
2022/01/25 10:11:25;;;;;;;33.10;14.70;;;5.20;99.90;;;;;;6189999;23;20179;-63
2022/01/25 10:13:54;;;;;;;31.40;14.20;;;5.20;99.90;;;;;;6216928;23;20152;-63
2022/01/25 10:16:32;;;;;;;34.05;13.20;;;5.20;99.90;;;;;;6216493;23;20236;-64
2022/01/25 10:19:03;;;;;;;30.58;13.90;;;5.30;99.90;;;;;;6215917;23;20615;-64
2022/01/25 10:21:37;;;;;;;28.98;12.50;;;5.30;99.90;;;;;;6215916;23;20129;-62
2022/01/25 10:24:10;;;;;;;30.65;12.88;;;5.40;99.90;;;;;;6216365;23;20424;-64
2022/01/25 10:26:54;;;;;;;30.90;13.82;;;5.40;99.90;;;;;;6215936;23;20446;-64
2022/01/25 10:29:25;;;;;;;32.72;13.18;;;5.40;99.90;;;;;;6216239;23;20182;-64
2022/01/25 10:31:58;;;;;;;29.55;12.63;;;5.40;99.90;;;;;;6216417;23;20224;-65
2022/01/25 10:34:29;;;;;;;27.77;12.73;;;5.40;99.90;;;;;;6218131;23;20129;-64
2022/01/25 10:36:56;;;;;;;32.42;12.52;;;5.40;99.90;;;;;;6217664;23;20130;-64
2022/01/25 10:39:30;;;;;;;24.48;11.57;;;5.30;99.90;;;;;;6217971;23;20152;-63
2022/01/25 10:42:04;;;;;;;26.95;11.30;;;5.30;99.90;;;;;;6217796;23;20425;-64
2022/01/25 10:44:55;;;;;;;28.85;11.73;;;5.40;99.90;;;;;;6217878;23;20453;-63
2022/01/25 10:47:39;;;;;;;27.30;12.27;;;5.40;99.90;;;;;;6218155;23;20140;-63
2022/01/25 10:50:37;;;;;;;26.50;11.10;;;5.40;99.90;;;;;;6217649;23;20216;-64
2022/01/25 10:53:11;;;;;;;25.85;11.45;;;5.50;99.90;;;;;;6205728;23;20160;-66
2022/01/25 10:55:42;;;;;;;26.50;11.25;;;5.50;99.90;;;;;;6217069;23;20179;-66
2022/01/25 10:58:07;;;;;;;24.17;11.15;;;5.50;99.90;;;;;;6217917;23;20133;-66
2022/01/25 11:00:36;;;;;;;26.33;11.80;;;5.50;99.90;;;;;;6217494;23;20172;-65
2022/01/25 11:03:03;;;;;;;28.67;11.63;;;5.50;99.90;;;;;;6217335;23;20441;-65
2022/01/25 11:05:38;;;;;;;25.75;11.38;;;5.50;99.90;;;;;;6191110;23;20446;-66
2022/01/25 11:08:16;;;;;;;27.63;11.55;;;5.50;99.90;;;;;;6217776;23;20173;-64
2022/01/25 11:10:50;;;;;;;29.13;12.23;;;5.50;99.90;;;;;;6217742;23;20228;-64
2022/01/25 11:16:01;;;;;;;25.92;12.25;;;5.40;99.90;;;;;;6217744;23;20609;-65
2022/01/25 11:18:26;;;;;;;24.33;11.73;;;5.40;99.90;;;;;;6218023;23;20145;-65
2022/01/25 11:20:53;;;;;;;26.88;11.55;;;5.40;99.90;;;;;;6217954;23;20164;-65
2022/01/25 11:23:19;;;;;;;24.10;11.02;;;5.50;99.90;;;;;;6218384;23;20146;-65
2022/01/25 11:25:46;;;;;;;26.52;11.48;;;5.50;99.90;;;;;;6218085;23;20453;-65
2022/01/25 11:28:13;;;;;;;27.08;10.73;;;5.40;99.90;;;;;;6218374;23;20506;-65
2022/01/25 11:30:40;;;;;;;24.65;10.38;;;5.40;99.90;;;;;;6217541;23;20548;-64
2022/01/25 11:33:07;;;;;;;25.95;11.15;;;5.50;99.90;;;;;;6191669;23;20145;-64
2022/01/25 11:35:33;;;;;;;22.95;9.50;;;5.50;99.90;;;;;;6218471;23;20159;-65
2022/01/25 11:37:58;;;;;;;25.92;10.23;;;5.50;99.90;;;;;;6217639;23;20219;-65
2022/01/25 11:40:34;;;;;;;20.80;9.40;;;5.50;99.90;;;;;;6217944;23;20227;-65
2022/01/25 11:43:11;;;;;;;25.52;10.52;;;5.60;99.90;;;;;;6217959;23;20597;-66
2022/01/25 11:45:42;;;;;;;24.45;10.23;;;5.60;99.90;;;;;;6218691;23;20171;-65
2022/01/25 11:48:08;;;;;;;25.65;10.93;;;5.60;99.90;;;;;;6217759;23;20153;-65
2022/01/25 11:50:36;;;;;;;28.40;11.45;;;5.60;99.90;;;;;;6218505;23;20191;-65
2022/01/25 11:53:06;;;;;;;22.88;10.60;;;5.70;99.90;;;;;;6217397;23;20145;-65
2022/01/25 11:55:36;;;;;;;22.85;10.70;;;5.70;99.90;;;;;;6216974;23;20129;-65
2022/01/25 11:58:09;;;;;;;24.02;10.30;;;5.70;99.90;;;;;;6217364;23;20214;-65
2022/01/25 12:00:52;;;;;;;19.77;9.93;;;5.60;99.90;;;;;;6217142;23;20571;-65
2022/01/25 12:03:24;;;;;;;24.85;9.98;;;5.60;99.90;;;;;;6217359;23;20149;-65
2022/01/25 12:06:08;;;;;;;20.20;9.23;;;5.60;99.90;;;;;;6217314;23;20155;-65
2022/01/25 12:11:33;;;;;;;24.00;9.93;;;5.70;99.90;;;;;;6185605;23;20227;-65
2022/01/25 12:14:13;;;;;;;16.85;8.40;;;5.70;99.90;;;;;;6217255;23;20129;-65
2022/01/25 12:16:43;;;;;;;17.98;7.97;;;5.70;99.90;;;;;;6217252;23;20176;-65
2022/01/25 12:19:11;;;;;;;23.10;9.07;;;5.70;99.90;;;;;;6216550;23;20255;-65
2022/01/25 12:21:46;;;;;;;18.02;8.48;;;5.70;99.90;;;;;;6215537;23;20463;-65
2022/01/25 12:24:45;;;;;;;18.23;8.80;;;5.70;99.90;;;;;;6215834;23;20144;-66
2022/01/25 12:27:22;;;;;;;17.40;8.43;;;5.70;99.90;;;;;;6175812;23;20149;-65
2022/01/25 12:30:00;;;;;;;16.50;7.40;;;5.70;99.90;;;;;;6215807;23;20133;-65
2022/01/25 12:32:33;;;;;;;18.33;8.05;;;5.70;99.90;;;;;;6215344;23;20207;-65
2022/01/25 12:35:04;;;;;;;15.07;6.72;;;5.70;99.90;;;;;;6215601;23;20133;-65
2022/01/25 12:37:42;;;;;;;17.00;7.85;;;5.70;99.90;;;;;;6215927;23;20163;-65
2022/01/25 12:40:26;;;;;;;15.68;6.93;;;5.80;99.90;;;;;;6215619;23;20173;-65
2022/01/25 12:43:26;;;;;;;14.23;6.20;;;5.80;99.90;;;;;;6215391;23;20145;-65
2022/01/25 12:46:04;;;;;;;14.23;6.53;;;5.80;99.90;;;;;;6215772;23;20140;-65
2022/01/25 12:48:33;;;;;;;13.35;6.18;;;5.80;99.90;;;;;;6215870;23;20172;-64
2022/01/25 12:51:02;;;;;;;14.52;7.22;;;5.80;99.90;;;;;;6215291;23;20572;-64
2022/01/25 12:53:29;;;;;;;15.95;6.63;;;5.80;99.90;;;;;;6215524;23;20207;-65
2022/01/25 12:56:00;;;;;;;13.80;6.88;;;5.80;99.90;;;;;;6214960;23;20145;-64
2022/01/25 12:58:28;;;;;;;15.65;6.75;;;5.80;99.90;;;;;;6215444;23;20151;-64
2022/01/25 13:00:57;;;;;;;16.20;6.72;;;5.80;99.90;;;;;;6215861;23;20179;-65
2022/01/25 13:03:35;;;;;;;14.45;7.05;;;5.80;99.90;;;;;;6215387;23;20609;-64
2022/01/25 13:06:07;;;;;;;14.93;7.15;;;5.80;99.90;;;;;;6215488;23;20464;-66
2022/01/25 13:08:36;;;;;;;15.70;6.97;;;5.80;99.90;;;;;;6215228;23;20149;-64
2022/01/25 13:11:25;;;;;;;15.73;7.55;;;5.80;99.90;;;;;;6215604;23;20145;-64
2022/01/25 13:14:00;;;;;;;15.52;7.47;;;5.80;99.90;;;;;;6215451;23;20137;-64
2022/01/25 13:16:42;;;;;;;13.80;7.32;;;5.80;99.90;;;;;;6214882;23;20545;-64
2022/01/25 13:19:08;;;;;;;13.82;7.30;;;5.80;99.90;;;;;;6173840;23;976340;-64
2022/01/25 13:21:59;;;;;;;14.38;6.90;;;5.80;99.90;;;;;;6216815;23;20184;-64
2022/01/25 13:24:30;;;;;;;14.85;7.13;;;5.80;99.90;;;;;;6216737;23;20129;-65
2022/01/25 13:27:01;;;;;;;17.40;7.90;;;5.80;99.90;;;;;;6216714;23;20143;-63
2022/01/25 13:32:30;;;;;;;11.40;6.38;;;5.80;99.90;;;;;;6216417;23;20556;-64
2022/01/25 13:35:34;;;;;;;10.50;5.93;;;5.80;99.90;;;;;;6216642;23;20226;-64
2022/01/25 13:38:30;;;;;;;11.68;5.22;;;5.70;99.90;;;;;;6216301;23;20132;-64
2022/01/25 13:46:29;;;;;;;10.30;5.45;;;5.70;99.90;;;;;;6216433;23;20140;-64
2022/01/25 13:49:07;;;;;;;11.63;5.05;;;5.70;99.90;;;;;;6216004;23;20565;-63
2022/01/25 13:51:42;;;;;;;9.73;5.30;;;5.70;99.90;;;;;;6216455;23;20156;-64
2022/01/25 13:54:12;;;;;;;12.32;5.43;;;5.70;99.90;;;;;;6216255;23;20538;-64
2022/01/25 13:56:37;;;;;;;9.50;5.43;;;5.70;99.90;;;;;;6216433;23;20225;-64
2022/01/25 13:59:04;;;;;;;10.75;5.90;;;5.70;99.90;;;;;;6216406;23;20183;-64
2022/01/25 14:01:31;;;;;;;10.32;5.72;;;5.70;99.90;;;;;;6216606;23;20514;-64
2022/01/25 14:04:08;;;;;;;10.65;5.80;;;5.70;99.90;;;;;;6216298;23;20152;-63
2022/01/25 14:06:41;;;;;;;10.73;5.57;;;5.70;99.90;;;;;;6216479;23;20195;-63
2022/01/25 14:09:13;;;;;;;11.25;5.90;;;5.60;99.90;;;;;;6216463;23;20429;-63
2022/01/25 14:25:37;;;;;;;10.82;5.63;;;5.60;99.90;;;;;;6216536;23;20136;-64
2022/01/25 14:28:06;;;;;;;12.82;5.40;;;5.50;99.90;;;;;;6216104;23;20518;-64
2022/01/25 14:30:33;;;;;;;11.38;5.97;;;5.50;99.90;;;;;;6216415;23;20238;-64
2022/01/25 14:33:03;;;;;;;9.20;4.88;;;5.50;99.90;;;;;;6216711;23;20159;-63
2022/01/25 14:35:31;;;;;;;10.15;4.95;;;5.50;99.90;;;;;;6216734;23;20156;-63
2022/01/25 14:37:57;;;;;;;9.93;4.70;;;5.50;99.90;;;;;;6189920;23;20164;-63
2022/01/25 14:40:23;;;;;;;9.60;4.38;;;5.50;99.90;;;;;;6215907;23;20165;-64